createdAt,value
2022-12-08T00:00:18.520Z,6.10
2022-12-08T00:06:05.811Z,8.70
2022-12-08T00:11:12.437Z,6.40
2022-12-08T00:16:13.910Z,7.90
2022-12-08T00:21:15.424Z,10.60
2022-12-08T00:26:16.468Z,8.30
2022-12-08T00:36:19.256Z,6.30
2022-12-08T00:46:42.888Z,6.50
2022-12-08T01:01:47.123Z,7.90
2022-12-08T01:06:49.150Z,8.70
2022-12-08T01:11:50.529Z,8.70
2022-12-08T01:16:51.869Z,9.80
2022-12-08T01:21:53.272Z,6.40
2022-12-08T01:31:55.338Z,6.80
2022-12-08T01:46:58.597Z,6.90
2022-12-08T01:57:14.484Z,8.30
2022-12-08T02:02:15.614Z,3.40
2022-12-08T02:07:17.645Z,7.70
2022-12-08T02:12:18.676Z,8.40
2022-12-08T02:23:03.813Z,6.70
2022-12-08T02:28:26.991Z,13.20
2022-12-08T02:33:46.807Z,17.80
2022-12-08T02:39:10.115Z,12.30
2022-12-08T02:44:26.887Z,13.70
2022-12-08T02:49:32.798Z,19.90
2022-12-08T02:54:35.437Z,9.20
2022-12-08T02:59:55.426Z,12.30
2022-12-08T03:05:42.106Z,14.20
2022-12-08T03:10:54.129Z,21.40
2022-12-08T03:15:56.044Z,29.00
2022-12-08T03:20:59.187Z,15.10
2022-12-08T03:26:24.204Z,18.50
2022-12-08T03:31:30.796Z,14.80
2022-12-08T03:36:32.071Z,10.50
2022-12-08T03:41:33.117Z,9.40
2022-12-08T03:51:35.736Z,8.30
2022-12-08T03:56:38.087Z,10.30
2022-12-08T04:01:39.475Z,10.10
2022-12-08T04:06:40.727Z,15.50
2022-12-08T04:11:41.772Z,12.70
2022-12-08T04:21:43.772Z,17.60
2022-12-08T04:31:46.413Z,29.60
2022-12-08T04:36:47.560Z,23.50
2022-12-08T04:46:49.621Z,32.10
2022-12-08T04:51:50.802Z,29.00
2022-12-08T05:01:53.188Z,26.40
2022-12-08T05:06:55.464Z,19.60
2022-12-08T05:16:57.484Z,16.00
2022-12-08T05:26:59.456Z,11.30
2022-12-08T05:37:01.697Z,11.30
2022-12-08T05:47:04.380Z,15.00
2022-12-08T05:52:05.743Z,13.40
2022-12-08T05:57:08.065Z,11.40
2022-12-08T06:02:09.454Z,8.30
2022-12-08T06:07:15.844Z,9.50
2022-12-08T06:12:17.211Z,20.80
2022-12-08T06:22:19.162Z,6.90
2022-12-08T06:27:20.138Z,11.50
2022-12-08T06:32:27.134Z,6.70
2022-12-08T06:37:28.547Z,10.20
2022-12-08T06:47:49.529Z,7.40
2022-12-08T06:58:06.072Z,6.50
2022-12-08T07:08:09.241Z,13.90
2022-12-08T07:13:10.349Z,14.70
2022-12-08T07:23:12.585Z,19.00
2022-12-08T07:28:13.996Z,11.80
2022-12-08T07:38:16.141Z,8.80
2022-12-08T07:53:19.946Z,2.70
2022-12-08T08:03:22.032Z,17.70
2022-12-08T08:18:25.388Z,6.70
2022-12-08T08:23:27.376Z,7.00
2022-12-08T08:28:28.988Z,7.80
2022-12-08T08:33:30.198Z,4.60
2022-12-08T08:38:31.236Z,7.90
2022-12-08T08:48:41.755Z,9.70
2022-12-08T08:53:43.277Z,7.70
2022-12-08T08:58:46.157Z,9.10
2022-12-08T09:03:48.364Z,6.50
2022-12-08T09:08:49.889Z,4.90
2022-12-08T09:13:52.474Z,8.20
2022-12-08T09:18:53.652Z,5.30
2022-12-08T09:23:57.049Z,6.80
2022-12-08T09:28:59.065Z,6.20
2022-12-08T09:34:00.288Z,8.10
2022-12-08T09:39:01.371Z,6.10
2022-12-08T09:49:04.782Z,6.80
2022-12-08T09:54:14.993Z,5.30
2022-12-08T09:59:21.975Z,9.40
2022-12-08T10:04:33.415Z,7.70
2022-12-08T10:09:49.089Z,6.50
2022-12-08T10:15:22.129Z,7.90
2022-12-08T10:20:26.120Z,7.10
2022-12-08T10:25:34.608Z,4.80
2022-12-08T10:30:35.850Z,5.70
2022-12-08T10:35:47.832Z,6.90
2022-12-08T10:41:03.932Z,10.00
2022-12-08T10:46:26.137Z,5.60
2022-12-08T10:51:37.367Z,7.30
2022-12-08T10:56:38.622Z,7.60
2022-12-08T11:01:41.681Z,6.50
2022-12-08T11:06:43.489Z,8.50
2022-12-08T11:11:46.628Z,5.70
2022-12-08T11:16:50.288Z,7.70
2022-12-08T11:21:51.492Z,10.00
2022-12-08T11:27:02.295Z,12.00
2022-12-08T11:32:12.372Z,8.40
2022-12-08T11:37:34.308Z,10.50
2022-12-08T11:42:52.752Z,7.80
2022-12-08T11:48:17.155Z,9.40
2022-12-08T11:53:43.614Z,10.20
2022-12-08T11:58:48.960Z,8.90
2022-12-08T12:04:08.971Z,10.20
2022-12-08T12:09:22.797Z,8.60
2022-12-08T12:15:02.412Z,7.70
2022-12-08T12:20:13.430Z,6.70
2022-12-08T12:30:24.087Z,8.30
2022-12-08T12:35:32.101Z,11.00
2022-12-08T12:40:40.934Z,14.10
2022-12-08T12:45:44.093Z,12.20
2022-12-08T12:50:50.416Z,16.20
2022-12-08T12:56:12.067Z,11.30
2022-12-08T13:01:19.230Z,15.60
2022-12-08T13:06:34.642Z,8.70
2022-12-08T13:11:48.390Z,13.00
2022-12-08T13:16:54.393Z,11.80
2022-12-08T13:21:55.701Z,19.60
2022-12-08T13:27:02.817Z,13.50
2022-12-08T13:33:16.876Z,19.00
2022-12-08T13:38:16.599Z,15.60
2022-12-08T13:43:24.073Z,18.30
2022-12-08T13:49:18.485Z,11.60
2022-12-08T13:59:44.097Z,12.00
2022-12-08T14:10:17.971Z,17.90
2022-12-08T14:15:19.373Z,20.20
2022-12-08T14:20:26.784Z,17.00
2022-12-08T14:25:28.918Z,20.10
2022-12-08T14:30:31.878Z,26.20
2022-12-08T14:35:36.205Z,13.90
2022-12-08T14:40:57.564Z,11.20
2022-12-08T14:46:01.598Z,14.80
2022-12-08T14:51:02.695Z,17.50
2022-12-08T15:01:23.838Z,14.10
2022-12-08T15:06:25.120Z,16.50
2022-12-08T15:11:31.500Z,13.80
2022-12-08T15:16:35.846Z,21.10
2022-12-08T15:21:38.208Z,19.30
2022-12-08T15:26:48.263Z,16.90
2022-12-08T15:31:51.722Z,20.90
2022-12-08T15:36:53.883Z,22.90
2022-12-08T15:41:54.890Z,16.20
2022-12-08T15:52:10.617Z,30.40
2022-12-08T16:03:22.395Z,22.80
2022-12-08T16:08:44.666Z,24.80
2022-12-08T16:14:04.253Z,26.00
2022-12-08T16:19:18.421Z,24.80
2022-12-08T16:24:19.517Z,29.00
2022-12-08T16:29:21.780Z,25.20
2022-12-08T16:34:22.754Z,19.50
2022-12-08T16:44:24.915Z,28.70
2022-12-08T16:49:25.944Z,27.40
2022-12-08T16:59:30.320Z,19.10
2022-12-08T17:04:32.370Z,20.90
2022-12-08T17:09:33.767Z,21.60
2022-12-08T17:19:37.006Z,22.80
2022-12-08T17:24:38.123Z,28.50
2022-12-08T17:29:39.619Z,32.10
2022-12-08T17:44:45.865Z,14.10
2022-12-08T17:49:46.901Z,23.50
2022-12-08T17:54:47.970Z,17.20
2022-12-08T18:04:50.023Z,15.30
2022-12-08T18:14:52.742Z,21.70
2022-12-08T18:24:54.871Z,19.90
2022-12-08T18:29:56.201Z,15.20
2022-12-08T18:34:57.271Z,21.40
2022-12-08T18:45:03.458Z,12.90
2022-12-08T18:50:08.359Z,14.90
2022-12-08T18:55:09.415Z,19.50
2022-12-08T19:00:14.285Z,15.30
2022-12-08T19:05:15.374Z,16.80
2022-12-08T19:20:19.288Z,22.40
2022-12-08T19:30:23.314Z,21.40
2022-12-08T19:35:24.391Z,14.90
2022-12-08T19:40:44.148Z,16.60
2022-12-08T19:45:45.201Z,21.80
2022-12-08T19:50:46.471Z,19.80
2022-12-08T20:00:48.511Z,18.30
2022-12-08T20:10:55.222Z,17.60
2022-12-08T20:15:56.998Z,14.20
2022-12-08T20:20:58.409Z,21.20
2022-12-08T20:26:04.168Z,17.70
2022-12-08T20:31:05.696Z,18.40
2022-12-08T20:36:07.553Z,16.80
2022-12-08T20:41:09.182Z,24.90
2022-12-08T20:46:13.183Z,16.80
2022-12-08T20:51:19.016Z,25.50
2022-12-08T20:56:22.701Z,22.20
2022-12-08T21:01:24.480Z,28.30
2022-12-08T21:06:29.013Z,21.10
2022-12-08T21:11:30.344Z,14.30
2022-12-08T21:16:31.853Z,20.70
2022-12-08T21:21:33.266Z,25.70
2022-12-08T21:26:34.849Z,32.40
2022-12-08T21:31:36.269Z,23.50
2022-12-08T21:36:37.873Z,25.10
2022-12-08T21:41:57.988Z,24.60
2022-12-08T21:46:59.331Z,17.50
2022-12-08T21:52:00.613Z,28.00
2022-12-08T21:57:01.774Z,29.20
2022-12-08T22:02:03.161Z,29.70
2022-12-08T22:07:08.813Z,30.00
2022-12-08T22:12:13.188Z,24.60
2022-12-08T22:17:14.456Z,28.00
2022-12-08T22:22:15.615Z,28.50
2022-12-08T22:32:17.758Z,25.30
2022-12-08T22:37:19.499Z,23.60
2022-12-08T22:42:20.558Z,20.30
2022-12-08T22:47:22.859Z,25.00
2022-12-08T22:52:24.177Z,28.10
2022-12-08T22:57:25.292Z,28.60
2022-12-08T23:07:28.092Z,21.90
2022-12-08T23:12:29.258Z,24.30
2022-12-08T23:22:32.790Z,24.80
2022-12-08T23:27:34.338Z,26.70
2022-12-08T23:32:36.055Z,29.40
2022-12-08T23:37:37.455Z,32.20
2022-12-08T23:42:38.553Z,31.50
2022-12-08T23:47:39.841Z,29.60
2022-12-08T23:52:41.060Z,26.40
2022-12-08T23:57:42.498Z,32.40
